createdAt,value
2024-02-26T00:02:14.180Z,45.40
2024-02-26T00:04:43.341Z,45.50
2024-02-26T00:07:11.480Z,45.10
2024-02-26T00:09:39.343Z,44.70
2024-02-26T00:12:07.647Z,45.10
2024-02-26T00:14:35.666Z,45.60
2024-02-26T00:17:03.774Z,46.30
2024-02-26T00:19:31.708Z,47.00
2024-02-26T00:22:00.916Z,47.20
2024-02-26T00:24:28.742Z,47.20
2024-02-26T00:26:56.680Z,48.10
2024-02-26T00:29:24.590Z,48.20
2024-02-26T00:31:52.413Z,49.70
2024-02-26T00:34:20.767Z,49.20
2024-02-26T00:36:48.641Z,49.90
2024-02-26T00:39:17.898Z,49.50
2024-02-26T00:41:45.802Z,49.70
2024-02-26T00:44:13.653Z,48.60
2024-02-26T00:46:41.454Z,46.80
2024-02-26T00:49:09.451Z,46.30
2024-02-26T00:51:37.417Z,45.80
2024-02-26T00:54:05.424Z,45.70
2024-02-26T00:56:34.707Z,45.50
2024-02-26T00:59:02.538Z,46.00
2024-02-26T01:01:30.882Z,46.60
2024-02-26T01:03:58.913Z,47.00
2024-02-26T01:06:26.978Z,47.00
2024-02-26T01:08:54.923Z,47.40
2024-02-26T01:11:22.798Z,48.00
2024-02-26T01:13:54.496Z,48.50
2024-02-26T01:16:22.296Z,48.90
2024-02-26T01:18:50.318Z,49.40
2024-02-26T01:21:18.288Z,50.10
2024-02-26T01:23:46.194Z,51.10
2024-02-26T01:26:14.454Z,51.60
2024-02-26T01:28:42.316Z,52.60
2024-02-26T01:31:12.757Z,51.90
2024-02-26T01:33:40.707Z,51.80
2024-02-26T01:36:08.736Z,50.40
2024-02-26T01:38:36.622Z,52.00
2024-02-26T01:41:04.636Z,50.60
2024-02-26T01:43:32.463Z,51.00
2024-02-26T01:46:00.798Z,50.90
2024-02-26T01:48:30.123Z,51.10
2024-02-26T01:50:58.481Z,51.70
2024-02-26T01:53:26.564Z,51.90
2024-02-26T01:55:54.439Z,52.60
2024-02-26T01:58:22.844Z,53.90
2024-02-26T02:00:50.923Z,54.30
2024-02-26T02:03:18.975Z,54.00
2024-02-26T02:05:48.341Z,53.90
2024-02-26T02:08:16.240Z,53.70
2024-02-26T02:10:44.520Z,53.70
2024-02-26T02:13:12.492Z,53.50
2024-02-26T02:15:40.328Z,55.40
2024-02-26T02:18:09.006Z,55.90
2024-02-26T02:20:38.339Z,57.10
2024-02-26T02:23:06.401Z,53.10
2024-02-26T02:25:34.312Z,52.90
2024-02-26T02:28:02.814Z,53.90
2024-02-26T02:30:34.272Z,55.70
2024-02-26T02:33:02.386Z,56.80
2024-02-26T02:35:30.348Z,57.00
2024-02-26T02:38:00.143Z,57.00
2024-02-26T02:40:27.969Z,57.30
2024-02-26T02:42:55.818Z,57.70
2024-02-26T02:45:23.718Z,57.10
2024-02-26T02:47:50.790Z,57.40
2024-02-26T02:50:18.708Z,57.30
2024-02-26T02:52:46.678Z,58.10
2024-02-26T02:55:16.137Z,58.70
2024-02-26T02:57:44.035Z,59.70
2024-02-26T03:00:13.180Z,59.20
2024-02-26T03:02:41.014Z,59.50
2024-02-26T03:05:09.499Z,59.40
2024-02-26T03:07:37.341Z,59.10
2024-02-26T03:10:05.504Z,60.60
2024-02-26T03:12:35.517Z,60.90
2024-02-26T03:15:04.050Z,60.80
2024-02-26T03:17:31.980Z,61.10
2024-02-26T03:19:59.886Z,61.50
2024-02-26T03:22:27.759Z,61.60
2024-02-26T03:24:55.586Z,61.20
2024-02-26T03:27:23.579Z,61.30
2024-02-26T03:29:53.829Z,60.10
2024-02-26T03:32:21.768Z,60.20
2024-02-26T03:34:49.743Z,60.60
2024-02-26T03:37:17.891Z,59.70
2024-02-26T03:39:45.717Z,59.80
2024-02-26T03:42:12.652Z,59.80
2024-02-26T03:44:40.525Z,59.20
2024-02-26T03:47:09.696Z,60.50
2024-02-26T03:49:37.659Z,58.70
2024-02-26T03:52:06.227Z,60.70
2024-02-26T03:54:34.132Z,63.20
2024-02-26T03:57:02.034Z,63.10
2024-02-26T03:59:29.863Z,62.20
2024-02-26T04:01:57.659Z,61.90
2024-02-26T04:04:26.849Z,62.00
2024-02-26T04:06:54.799Z,64.20
2024-02-26T04:09:22.733Z,65.10
2024-02-26T04:11:50.704Z,64.40
2024-02-26T04:14:18.570Z,65.10
2024-02-26T04:16:46.397Z,65.50
2024-02-26T04:19:14.401Z,65.10
2024-02-26T04:21:44.856Z,65.60
2024-02-26T04:24:12.732Z,64.90
2024-02-26T04:26:40.595Z,64.10
2024-02-26T04:29:08.528Z,65.10
2024-02-26T04:31:36.348Z,63.10
2024-02-26T04:34:04.480Z,64.20
2024-02-26T04:36:32.437Z,65.30
2024-02-26T04:39:01.695Z,67.30
2024-02-26T04:41:29.535Z,67.90
2024-02-26T04:43:57.376Z,67.60
2024-02-26T04:46:25.388Z,68.30
2024-02-26T04:48:55.872Z,68.60
2024-02-26T04:51:25.182Z,68.80
2024-02-26T04:53:54.812Z,68.30
2024-02-26T04:56:24.266Z,70.30
2024-02-26T04:58:52.083Z,71.80
2024-02-26T05:01:20.704Z,71.40
2024-02-26T05:03:48.652Z,72.00
2024-02-26T05:06:16.726Z,72.20
2024-02-26T05:08:45.223Z,73.20
2024-02-26T05:11:13.102Z,73.60
2024-02-26T05:13:43.787Z,75.80
2024-02-26T05:16:11.608Z,75.90
2024-02-26T05:18:39.593Z,76.20
2024-02-26T05:21:07.504Z,76.60
2024-02-26T05:23:35.313Z,77.00
2024-02-26T05:26:03.137Z,77.50
2024-02-26T05:28:30.993Z,78.00
2024-02-26T05:31:00.214Z,77.40
2024-02-26T05:33:28.160Z,77.40
2024-02-26T05:35:56.133Z,78.00
2024-02-26T05:38:23.950Z,78.30
2024-02-26T05:40:53.568Z,78.60
2024-02-26T05:43:21.375Z,78.70
2024-02-26T05:45:49.176Z,78.00
2024-02-26T05:48:20.223Z,78.20
2024-02-26T05:50:48.213Z,76.60
2024-02-26T05:53:16.524Z,78.00
2024-02-26T05:55:44.480Z,79.50
2024-02-26T05:58:12.324Z,79.30
2024-02-26T06:00:40.230Z,81.10
2024-02-26T06:03:08.235Z,82.20
2024-02-26T06:05:37.491Z,82.90
2024-02-26T06:08:06.217Z,83.20
2024-02-26T06:10:34.047Z,82.70
2024-02-26T06:13:01.871Z,82.70
2024-02-26T06:15:29.751Z,82.80
2024-02-26T06:17:57.920Z,83.30
2024-02-26T06:20:25.887Z,83.60
2024-02-26T06:22:55.043Z,83.60
2024-02-26T06:25:22.875Z,83.80
2024-02-26T06:27:51.172Z,83.50
2024-02-26T06:30:19.277Z,83.50
2024-02-26T06:32:47.269Z,83.10
2024-02-26T06:35:15.338Z,83.10
2024-02-26T06:37:43.302Z,82.30
2024-02-26T06:40:13.031Z,82.00
2024-02-26T06:42:41.085Z,81.20
2024-02-26T06:45:09.868Z,80.80
2024-02-26T06:47:38.028Z,80.40
2024-02-26T06:50:06.648Z,80.10
2024-02-26T06:52:34.471Z,79.90
2024-02-26T06:55:02.656Z,80.90
2024-02-26T06:57:31.880Z,81.00
2024-02-26T07:00:00.544Z,81.30
2024-02-26T07:02:28.603Z,82.60
2024-02-26T07:04:57.260Z,83.10
2024-02-26T07:07:25.145Z,83.50
2024-02-26T07:09:53.024Z,83.80
2024-02-26T07:12:22.437Z,84.20
2024-02-26T07:14:53.393Z,84.50
2024-02-26T07:17:21.324Z,84.30
2024-02-26T07:19:49.294Z,83.80
2024-02-26T07:22:17.320Z,83.30
2024-02-26T07:24:45.224Z,82.30
2024-02-26T07:27:13.210Z,81.60
2024-02-26T07:29:41.044Z,81.60
2024-02-26T07:32:11.523Z,81.40
2024-02-26T07:34:42.657Z,79.00
2024-02-26T07:37:10.712Z,79.30
2024-02-26T07:39:38.944Z,79.70
2024-02-26T07:42:07.537Z,78.20
2024-02-26T07:44:35.827Z,78.00
2024-02-26T07:47:04.044Z,78.50
2024-02-26T07:49:35.383Z,79.20
2024-02-26T07:52:04.169Z,79.50
2024-02-26T07:54:32.055Z,79.90
2024-02-26T07:57:00.027Z,80.20
2024-02-26T07:59:27.876Z,78.10
2024-02-26T08:01:58.785Z,76.20
2024-02-26T08:04:27.830Z,74.10
2024-02-26T08:06:57.161Z,72.40
2024-02-26T08:09:25.191Z,71.60
2024-02-26T08:11:53.154Z,71.30
2024-02-26T08:14:21.036Z,71.60
2024-02-26T08:16:49.995Z,71.70
2024-02-26T08:19:18.842Z,72.20
2024-02-26T08:21:46.845Z,73.10
2024-02-26T08:24:16.375Z,75.00
2024-02-26T08:26:44.252Z,73.50
2024-02-26T08:29:12.096Z,71.40
2024-02-26T08:31:39.904Z,72.20
2024-02-26T08:34:07.960Z,72.60
2024-02-26T08:36:36.476Z,74.30
2024-02-26T08:39:05.104Z,76.30
2024-02-26T08:41:34.277Z,78.80
2024-02-26T08:44:02.089Z,79.50
2024-02-26T08:46:29.905Z,80.50
2024-02-26T08:48:57.816Z,79.40
2024-02-26T08:51:25.820Z,78.30
2024-02-26T08:53:55.027Z,80.20
2024-02-26T08:56:23.351Z,80.60
2024-02-26T08:58:54.682Z,81.90
2024-02-26T09:01:24.442Z,82.80
2024-02-26T09:03:52.441Z,83.30
2024-02-26T09:06:20.415Z,83.10
2024-02-26T09:08:48.385Z,83.70
2024-02-26T09:11:16.478Z,83.80
2024-02-26T09:13:44.876Z,83.50
2024-02-26T09:16:14.601Z,82.90
2024-02-26T09:18:42.579Z,81.90
2024-02-26T09:21:10.477Z,80.80
2024-02-26T09:23:38.301Z,79.10
2024-02-26T09:26:07.607Z,77.80
2024-02-26T09:28:38.371Z,76.20
2024-02-26T09:31:07.352Z,75.00
2024-02-26T09:33:36.997Z,76.10
2024-02-26T09:36:07.259Z,77.10
2024-02-26T09:38:45.390Z,78.40
2024-02-26T09:41:20.392Z,77.70
2024-02-26T09:43:50.653Z,78.20
2024-02-26T09:46:21.131Z,77.10
2024-02-26T09:48:50.455Z,77.00
2024-02-26T09:51:19.322Z,74.70
2024-02-26T09:53:51.328Z,73.80
2024-02-26T09:56:19.591Z,72.40
2024-02-26T09:58:50.255Z,71.00
2024-02-26T10:01:20.257Z,69.90
2024-02-26T10:03:54.344Z,70.30
2024-02-26T10:06:23.047Z,71.20
2024-02-26T10:08:51.427Z,71.60
2024-02-26T10:11:20.025Z,72.00
2024-02-26T10:13:47.881Z,73.60
2024-02-26T10:16:16.528Z,73.60
2024-02-26T10:18:57.598Z,74.60
2024-02-26T10:21:29.207Z,74.10
2024-02-26T10:23:57.063Z,72.20
2024-02-26T10:26:24.906Z,73.40
2024-02-26T10:28:55.334Z,71.50
2024-02-26T10:31:23.937Z,72.20
2024-02-26T10:33:52.061Z,72.00
2024-02-26T10:36:20.177Z,71.60
2024-02-26T10:38:51.319Z,71.10
2024-02-26T10:41:19.944Z,71.40
2024-02-26T10:43:49.743Z,69.90
2024-02-26T10:46:17.917Z,70.20
2024-02-26T10:48:52.597Z,69.60
2024-02-26T10:51:27.125Z,68.30
2024-02-26T10:54:01.852Z,69.60
2024-02-26T10:56:31.358Z,68.90
2024-02-26T10:59:00.046Z,68.70
2024-02-26T11:01:30.550Z,69.00
2024-02-26T11:03:59.409Z,67.90
2024-02-26T11:06:28.599Z,67.50
2024-02-26T11:08:58.420Z,67.50
2024-02-26T11:11:28.851Z,67.20
2024-02-26T11:13:57.923Z,66.40
2024-02-26T11:16:27.884Z,67.20
2024-02-26T11:18:57.107Z,66.70
2024-02-26T11:21:31.065Z,65.80
2024-02-26T11:24:00.515Z,65.50
2024-02-26T11:26:29.688Z,66.10
2024-02-26T11:28:58.197Z,65.10
2024-02-26T11:31:28.602Z,65.90
2024-02-26T11:33:58.324Z,64.60
2024-02-26T11:36:26.695Z,63.90
2024-02-26T11:38:54.828Z,65.20
2024-02-26T11:41:24.706Z,64.20
2024-02-26T11:43:53.817Z,63.30
2024-02-26T11:46:28.206Z,63.40
2024-02-26T11:48:58.502Z,64.00
2024-02-26T11:51:28.783Z,62.90
2024-02-26T11:53:58.523Z,64.90
2024-02-26T11:56:32.413Z,66.10
2024-02-26T11:59:02.917Z,65.30
2024-02-26T12:01:41.601Z,64.20
2024-02-26T12:04:15.659Z,63.00
2024-02-26T12:06:46.946Z,62.90
2024-02-26T12:09:15.608Z,64.00
2024-02-26T12:11:44.987Z,62.70
2024-02-26T12:14:12.923Z,62.60
2024-02-26T12:16:43.544Z,62.00
2024-02-26T12:19:12.006Z,63.10
2024-02-26T12:21:40.288Z,63.30
2024-02-26T12:24:16.612Z,64.10
2024-02-26T12:26:45.955Z,65.70
2024-02-26T12:29:14.644Z,66.10
2024-02-26T12:31:42.851Z,66.30
2024-02-26T12:34:11.676Z,63.20
2024-02-26T12:36:41.335Z,63.00
2024-02-26T12:39:10.499Z,63.70
2024-02-26T12:41:40.607Z,65.40
2024-02-26T12:44:10.478Z,65.30
2024-02-26T12:46:38.281Z,65.40
2024-02-26T12:49:07.338Z,65.20
2024-02-26T12:51:35.843Z,65.40
2024-02-26T12:54:04.219Z,65.60
2024-02-26T12:56:33.021Z,65.60
2024-02-26T12:59:01.932Z,65.10
2024-02-26T13:01:31.603Z,65.70
2024-02-26T13:04:02.038Z,65.70
2024-02-26T13:06:30.081Z,64.30
2024-02-26T13:09:00.721Z,64.10
2024-02-26T13:11:30.011Z,64.40
2024-02-26T13:13:57.899Z,63.10
2024-02-26T13:16:26.832Z,63.80
2024-02-26T13:18:56.138Z,62.70
2024-02-26T13:21:25.705Z,61.80
2024-02-26T13:23:55.796Z,61.40
2024-02-26T13:26:26.100Z,61.00
2024-02-26T13:29:04.444Z,61.80
2024-02-26T13:31:32.326Z,60.90
2024-02-26T13:34:01.720Z,59.30
2024-02-26T13:36:29.905Z,59.00
2024-02-26T13:38:58.074Z,56.60
2024-02-26T13:41:25.948Z,57.30
2024-02-26T13:43:53.865Z,57.90
2024-02-26T13:46:21.770Z,60.10
2024-02-26T13:48:49.733Z,57.30
2024-02-26T13:51:19.149Z,55.90
2024-02-26T13:53:47.357Z,55.30
2024-02-26T13:56:15.438Z,56.10
2024-02-26T13:58:43.353Z,55.90
2024-02-26T14:01:11.243Z,55.50
2024-02-26T14:03:39.190Z,56.50
2024-02-26T14:06:07.341Z,56.30
2024-02-26T14:08:36.570Z,56.90
2024-02-26T14:11:04.631Z,56.60
2024-02-26T14:13:33.702Z,55.60
2024-02-26T14:16:02.793Z,56.10
2024-02-26T14:18:30.780Z,56.20
2024-02-26T14:20:58.686Z,56.20
2024-02-26T14:23:26.511Z,56.80
2024-02-26T14:25:55.644Z,56.60
2024-02-26T14:28:29.379Z,56.20
2024-02-26T14:31:05.321Z,56.50
2024-02-26T14:33:33.435Z,56.80
2024-02-26T14:36:01.688Z,57.00
2024-02-26T14:38:29.571Z,56.90
2024-02-26T14:40:58.724Z,56.90
2024-02-26T14:43:26.513Z,56.60
2024-02-26T14:45:54.296Z,57.00
2024-02-26T14:48:22.222Z,56.90
2024-02-26T14:50:50.199Z,56.90
2024-02-26T14:53:18.353Z,57.70
2024-02-26T14:55:46.544Z,56.40
2024-02-26T14:58:15.729Z,56.80
2024-02-26T15:00:43.629Z,56.50
2024-02-26T15:03:11.678Z,57.40
2024-02-26T15:05:39.628Z,57.80
2024-02-26T15:08:10.151Z,57.40
2024-02-26T15:10:38.162Z,57.80
2024-02-26T15:13:08.059Z,58.10
2024-02-26T15:15:38.676Z,58.40
2024-02-26T15:18:06.827Z,58.60
2024-02-26T15:20:34.695Z,59.20
2024-02-26T15:23:02.477Z,60.00
2024-02-26T15:25:30.324Z,59.60
2024-02-26T15:27:58.159Z,60.00
2024-02-26T15:30:26.081Z,60.40
2024-02-26T15:32:55.475Z,60.80
2024-02-26T15:35:23.371Z,60.20
2024-02-26T15:37:51.180Z,60.60
2024-02-26T15:40:19.355Z,60.60
2024-02-26T15:42:48.298Z,60.80
2024-02-26T15:45:17.433Z,60.80
2024-02-26T15:47:45.700Z,60.70
2024-02-26T15:50:15.695Z,60.70
2024-02-26T15:52:43.587Z,60.60
2024-02-26T15:55:17.020Z,60.50
2024-02-26T15:57:46.453Z,60.90
2024-02-26T16:00:15.617Z,60.30
2024-02-26T16:02:43.478Z,60.30
2024-02-26T16:05:12.373Z,60.50
2024-02-26T16:07:45.708Z,60.30
2024-02-26T16:10:13.740Z,60.20
2024-02-26T16:12:43.992Z,59.80
2024-02-26T16:15:12.742Z,59.80
2024-02-26T16:17:48.251Z,60.30
2024-02-26T16:20:19.292Z,60.20
2024-02-26T16:22:49.123Z,60.40
2024-02-26T16:25:17.192Z,60.60
2024-02-26T16:27:45.214Z,60.50
2024-02-26T16:30:14.843Z,60.70
2024-02-26T16:32:43.218Z,61.00
2024-02-26T16:35:12.835Z,61.00
2024-02-26T16:37:41.094Z,60.90
2024-02-26T16:40:11.039Z,61.30
2024-02-26T16:42:39.628Z,61.30
2024-02-26T16:45:08.189Z,61.60
2024-02-26T16:47:37.267Z,60.70
2024-02-26T16:50:07.238Z,59.70
2024-02-26T16:52:35.202Z,59.60
2024-02-26T16:55:05.959Z,59.50
2024-02-26T16:57:35.648Z,57.60
2024-02-26T17:00:04.522Z,55.50
2024-02-26T17:02:32.384Z,54.20
2024-02-26T17:05:00.225Z,53.00
2024-02-26T17:07:28.054Z,51.50
2024-02-26T17:09:56.198Z,51.20
2024-02-26T17:12:24.125Z,51.60
2024-02-26T17:14:53.542Z,51.50
2024-02-26T17:17:21.391Z,52.80
2024-02-26T17:19:49.223Z,52.90
2024-02-26T17:22:18.447Z,52.70
2024-02-26T17:24:48.197Z,53.10
2024-02-26T17:27:16.157Z,54.10
2024-02-26T17:29:44.035Z,54.70
2024-02-26T17:32:15.925Z,55.10
2024-02-26T17:34:44.324Z,55.80
2024-02-26T17:37:12.413Z,55.60
2024-02-26T17:39:40.479Z,55.90
2024-02-26T17:42:09.842Z,56.20
2024-02-26T17:44:40.354Z,56.50
2024-02-26T17:47:08.949Z,56.80
2024-02-26T17:49:40.835Z,57.20
2024-02-26T17:52:08.764Z,57.70
2024-02-26T17:54:36.663Z,57.80
2024-02-26T17:57:05.061Z,58.30
2024-02-26T17:59:32.861Z,58.60
2024-02-26T18:02:00.723Z,58.90
2024-02-26T18:04:28.618Z,59.50
2024-02-26T18:06:57.773Z,59.30
2024-02-26T18:09:25.640Z,59.70
2024-02-26T18:11:56.287Z,59.60
2024-02-26T18:14:24.339Z,59.30
2024-02-26T18:16:52.156Z,59.60
2024-02-26T18:19:20.061Z,59.80
2024-02-26T18:21:47.911Z,60.00
2024-02-26T18:24:17.217Z,59.80
2024-02-26T18:26:45.423Z,60.40
2024-02-26T18:29:13.503Z,60.30
2024-02-26T18:31:41.301Z,60.60
2024-02-26T18:34:09.201Z,60.10
2024-02-26T18:36:37.530Z,59.70
2024-02-26T18:39:05.534Z,59.70
2024-02-26T18:41:34.735Z,59.20
2024-02-26T18:44:02.634Z,59.30
2024-02-26T18:46:30.454Z,59.60
2024-02-26T18:48:58.410Z,59.50
2024-02-26T18:51:26.469Z,59.70
2024-02-26T18:53:54.359Z,60.20
2024-02-26T18:56:23.958Z,60.70
2024-02-26T18:58:53.301Z,61.00
2024-02-26T19:01:21.201Z,61.00
2024-02-26T19:03:49.181Z,60.60
2024-02-26T19:06:17.068Z,60.40
2024-02-26T19:08:44.926Z,61.50
2024-02-26T19:11:13.087Z,62.00
2024-02-26T19:13:40.917Z,61.20
2024-02-26T19:16:10.225Z,61.10
2024-02-26T19:18:38.184Z,61.50
2024-02-26T19:21:06.830Z,61.90
2024-02-26T19:23:36.514Z,62.40
2024-02-26T19:26:05.512Z,62.30
2024-02-26T19:28:33.429Z,62.70
2024-02-26T19:31:01.210Z,63.10
2024-02-26T19:33:30.828Z,63.40
2024-02-26T19:35:58.838Z,63.60
2024-02-26T19:38:26.715Z,63.70
2024-02-26T19:40:54.523Z,63.60
2024-02-26T19:43:22.349Z,63.50
2024-02-26T19:45:50.485Z,64.10
2024-02-26T19:48:18.424Z,64.60
2024-02-26T19:50:47.677Z,64.40
2024-02-26T19:53:15.629Z,65.10
2024-02-26T19:55:45.150Z,65.70
2024-02-26T19:58:13.092Z,65.90
2024-02-26T20:00:41.094Z,65.80
2024-02-26T20:03:09.153Z,65.20
2024-02-26T20:05:37.387Z,65.10
2024-02-26T20:08:07.475Z,65.40
2024-02-26T20:10:35.266Z,65.40
2024-02-26T20:13:03.114Z,66.50
2024-02-26T20:15:31.040Z,67.50
2024-02-26T20:17:58.947Z,68.10
2024-02-26T20:20:30.156Z,68.20
2024-02-26T20:22:57.969Z,67.70
2024-02-26T20:25:27.087Z,68.00
2024-02-26T20:27:54.937Z,68.20
2024-02-26T20:30:26.814Z,67.90
2024-02-26T20:32:54.805Z,67.90
2024-02-26T20:35:23.143Z,67.50
2024-02-26T20:37:50.982Z,67.30
2024-02-26T20:40:20.622Z,67.30
2024-02-26T20:42:50.017Z,67.50
2024-02-26T20:45:17.894Z,67.70
2024-02-26T20:47:45.983Z,67.40
2024-02-26T20:50:13.860Z,67.30
2024-02-26T20:52:41.648Z,67.20
2024-02-26T20:55:10.478Z,67.00
2024-02-26T20:57:38.297Z,66.70
2024-02-26T21:00:09.970Z,66.70
2024-02-26T21:02:40.154Z,66.80
2024-02-26T21:05:10.451Z,67.00
2024-02-26T21:07:38.955Z,67.10
2024-02-26T21:10:08.770Z,67.10
2024-02-26T21:12:36.839Z,67.40
2024-02-26T21:15:05.347Z,67.50
2024-02-26T21:17:34.573Z,67.50
2024-02-26T21:20:02.607Z,68.50
2024-02-26T21:22:30.562Z,68.20
2024-02-26T21:24:58.339Z,68.60
2024-02-26T21:27:26.166Z,68.60
2024-02-26T21:29:54.179Z,68.70
2024-02-26T21:32:22.004Z,68.60
2024-02-26T21:34:51.169Z,68.80
2024-02-26T21:37:19.237Z,69.90
2024-02-26T21:39:47.123Z,70.50
2024-02-26T21:42:15.147Z,70.10
2024-02-26T21:44:42.941Z,69.90
2024-02-26T21:47:11.145Z,70.00
2024-02-26T21:49:39.202Z,70.60
2024-02-26T21:52:09.002Z,70.70
2024-02-26T21:54:37.607Z,71.10
2024-02-26T21:57:06.918Z,71.40
2024-02-26T21:59:34.808Z,71.80
2024-02-26T22:02:02.610Z,72.10
2024-02-26T22:04:30.514Z,71.80
2024-02-26T22:06:58.504Z,71.50
2024-02-26T22:09:28.322Z,71.20
2024-02-26T22:11:56.231Z,71.00
2024-02-26T22:14:25.720Z,70.80
2024-02-26T22:16:54.412Z,71.10
2024-02-26T22:19:22.276Z,71.30
2024-02-26T22:21:51.844Z,71.20
2024-02-26T22:24:19.990Z,71.30
2024-02-26T22:26:49.139Z,71.30
2024-02-26T22:29:16.924Z,71.30
2024-02-26T22:31:44.713Z,71.60
2024-02-26T22:34:12.808Z,71.70
2024-02-26T22:36:40.779Z,71.90
2024-02-26T22:39:09.130Z,72.10
2024-02-26T22:41:41.667Z,72.30
2024-02-26T22:44:10.872Z,72.50
2024-02-26T22:46:39.054Z,72.80
2024-02-26T22:49:08.606Z,72.80
2024-02-26T22:51:36.692Z,73.20
2024-02-26T22:54:04.867Z,73.80
2024-02-26T22:56:32.703Z,74.60
2024-02-26T22:59:04.912Z,74.50
2024-02-26T23:01:34.409Z,74.90
2024-02-26T23:04:02.405Z,75.10
2024-02-26T23:06:30.316Z,75.60
2024-02-26T23:08:58.154Z,75.80
2024-02-26T23:11:26.047Z,76.20
2024-02-26T23:13:53.891Z,76.50
2024-02-26T23:16:21.683Z,76.50
2024-02-26T23:18:50.838Z,76.80
2024-02-26T23:21:19.043Z,77.00
2024-02-26T23:23:47.352Z,77.40
2024-02-26T23:26:15.156Z,77.50
2024-02-26T23:28:43.288Z,77.70
2024-02-26T23:31:11.194Z,77.90
2024-02-26T23:33:39.084Z,78.00
2024-02-26T23:36:09.220Z,78.10
2024-02-26T23:38:37.081Z,78.30
2024-02-26T23:41:05.094Z,78.50
2024-02-26T23:43:32.953Z,78.60
2024-02-26T23:46:00.779Z,79.00
2024-02-26T23:48:28.660Z,79.30
2024-02-26T23:50:56.621Z,79.80
2024-02-26T23:53:25.799Z,80.10
2024-02-26T23:55:53.626Z,80.30
2024-02-26T23:58:24.055Z,80.50
